AIQ518 VTBD-VHHH
Flight info
| Callsign | AIQ518 |
|---|---|
| Flight time | N/A |
| Altitude | 37000 |
| Route | ROBKA3A ROBKA A1 SANOT Y15 GUROK A202 VILAO/K0833F370 A202 ASSAD/K0833S1130 A202 SAMAS/K0709S0630 A202 SIKOU/N0449F390 V571 CANTO |
| Aircraft | A320/M-SDE3FGHIRWY/LB1 |
Departure
| Time | 2026-04-30 13:48 |
|---|---|
| Airport | Don Mueang International Airport (VTBD) |
Arrival
| Time | N/A |
|---|---|
| Airport | Hong Kong International Airport (VHHH) |
| Time | Latitude | Longitude | Altitude | Speed | Heading |
|---|---|---|---|---|---|
| 2026-04-30 13:26 | 13.91568 | 100.60204 | 17 ft | 0 kts | 28° |
| 2026-04-30 13:30 | 13.91538 | 100.60187 | 19 ft | 2 kts | 38° |
| 2026-04-30 13:31 | 13.91516 | 100.60162 | 19 ft | 2 kts | 67° |
| 2026-04-30 13:31 | 13.91510 | 100.60137 | 18 ft | 0 kts | 117° |
| 2026-04-30 13:32 | 13.91476 | 100.60201 | 19 ft | 11 kts | 119° |
| 2026-04-30 13:32 | 13.91434 | 100.60376 | 17 ft | 15 kts | 37° |
| 2026-04-30 13:33 | 13.91566 | 100.60452 | 17 ft | 12 kts | 28° |
| 2026-04-30 13:33 | 13.91714 | 100.60535 | 19 ft | 12 kts | 28° |
| 2026-04-30 13:34 | 13.91790 | 100.60578 | 17 ft | 12 kts | 29° |
| 2026-04-30 13:34 | 13.92042 | 100.60718 | 18 ft | 16 kts | 28° |
| 2026-04-30 13:35 | 13.92145 | 100.60775 | 18 ft | 18 kts | 28° |
| 2026-04-30 13:35 | 13.92382 | 100.60909 | 18 ft | 21 kts | 29° |
| 2026-04-30 13:36 | 13.92610 | 100.61036 | 17 ft | 8 kts | 31° |
| 2026-04-30 13:36 | 13.92648 | 100.61067 | 19 ft | 6 kts | 59° |
| 2026-04-30 13:36 | 13.92649 | 100.61089 | 17 ft | 0 kts | 97° |
| 2026-04-30 13:46 | 13.92649 | 100.61090 | 17 ft | 1 kts | 97° |
| 2026-04-30 13:46 | 13.92626 | 100.61143 | 18 ft | 16 kts | 121° |
| 2026-04-30 13:46 | 13.92556 | 100.61200 | 16 ft | 7 kts | 195° |
| 2026-04-30 13:47 | 13.92520 | 100.61178 | 18 ft | 7 kts | 210° |
| 2026-04-30 13:47 | 13.92341 | 100.61077 | 17 ft | 65 kts | 208° |
| 2026-04-30 13:47 | 13.91744 | 100.60742 | 15 ft | 128 kts | 208° |
| 2026-04-30 13:47 | 13.90807 | 100.60222 | 47 ft | 174 kts | 206° |
| 2026-04-30 13:48 | 13.89740 | 100.59623 | 631 ft | 175 kts | 207° |
| 2026-04-30 13:48 | 13.88630 | 100.59008 | 1006 ft | 191 kts | 207° |
| 2026-04-30 13:48 | 13.87395 | 100.58330 | 1434 ft | 207 kts | 207° |
| 2026-04-30 13:48 | 13.86259 | 100.57361 | 1899 ft | 226 kts | 237° |
| 2026-04-30 13:49 | 13.85595 | 100.55799 | 2293 ft | 252 kts | 251° |
| 2026-04-30 13:49 | 13.85149 | 100.53988 | 2871 ft | 266 kts | 257° |
| 2026-04-30 13:49 | 13.84771 | 100.52100 | 3669 ft | 272 kts | 257° |
| 2026-04-30 13:49 | 13.84386 | 100.50179 | 4496 ft | 276 kts | 256° |
| 2026-04-30 13:50 | 13.83828 | 100.48287 | 5310 ft | 278 kts | 240° |
| 2026-04-30 13:50 | 13.81340 | 100.45245 | 6990 ft | 280 kts | 225° |
| 2026-04-30 13:50 | 13.79989 | 100.43789 | 7791 ft | 283 kts | 225° |
| 2026-04-30 13:51 | 13.78462 | 100.42544 | 8572 ft | 285 kts | 206° |
| 2026-04-30 13:51 | 13.76549 | 100.41962 | 9332 ft | 288 kts | 184° |
| 2026-04-30 13:51 | 13.74538 | 100.42058 | 10089 ft | 291 kts | 175° |
| 2026-04-30 13:51 | 13.72453 | 100.42261 | 10381 ft | 313 kts | 175° |
| 2026-04-30 13:52 | 13.70203 | 100.42482 | 10585 ft | 334 kts | 175° |
| 2026-04-30 13:52 | 13.67913 | 100.42897 | 11071 ft | 344 kts | 162° |
| 2026-04-30 13:52 | 13.65761 | 100.44008 | 11698 ft | 350 kts | 144° |
| 2026-04-30 13:52 | 13.64024 | 100.45774 | 12333 ft | 356 kts | 126° |
| 2026-04-30 13:53 | 13.62908 | 100.48054 | 12984 ft | 361 kts | 108° |
| 2026-04-30 13:53 | 13.62395 | 100.50596 | 13632 ft | 365 kts | 101° |
| 2026-04-30 13:53 | 13.61945 | 100.53175 | 14195 ft | 368 kts | 101° |
| 2026-04-30 13:53 | 13.61638 | 100.54934 | 14570 ft | 371 kts | 101° |
| 2026-04-30 13:54 | 13.61386 | 100.57529 | 15093 ft | 375 kts | 91° |
| 2026-04-30 13:54 | 13.61624 | 100.60262 | 15656 ft | 379 kts | 82° |
| 2026-04-30 13:54 | 13.62020 | 100.62916 | 16208 ft | 382 kts | 82° |
| 2026-04-30 13:54 | 13.62421 | 100.65624 | 16751 ft | 385 kts | 82° |
| 2026-04-30 13:55 | 13.62822 | 100.68360 | 17257 ft | 389 kts | 82° |
| 2026-04-30 13:55 | 13.63227 | 100.71129 | 17772 ft | 393 kts | 82° |
| 2026-04-30 13:55 | 13.63634 | 100.73918 | 18283 ft | 396 kts | 82° |
| 2026-04-30 13:55 | 13.64045 | 100.76733 | 18735 ft | 400 kts | 82° |
| 2026-04-30 13:56 | 13.64456 | 100.79567 | 19203 ft | 402 kts | 82° |
| 2026-04-30 13:56 | 13.64869 | 100.82425 | 19665 ft | 405 kts | 82° |
| 2026-04-30 13:56 | 13.65286 | 100.85301 | 20131 ft | 408 kts | 82° |
| 2026-04-30 13:56 | 13.65704 | 100.88193 | 20603 ft | 411 kts | 82° |
| 2026-04-30 13:57 | 13.66128 | 100.91113 | 21061 ft | 414 kts | 82° |
| 2026-04-30 13:57 | 13.66662 | 100.94028 | 21526 ft | 417 kts | 75° |
| 2026-04-30 13:57 | 13.67672 | 100.96825 | 21963 ft | 421 kts | 64° |
| 2026-04-30 13:57 | 13.69179 | 100.99417 | 22408 ft | 423 kts | 53° |
| 2026-04-30 13:58 | 13.71019 | 101.01790 | 22839 ft | 426 kts | 51° |
| 2026-04-30 13:58 | 13.74760 | 101.06571 | 23660 ft | 431 kts | 51° |
| 2026-04-30 13:58 | 13.76636 | 101.08987 | 23988 ft | 434 kts | 51° |
| 2026-04-30 13:59 | 13.78527 | 101.11428 | 24343 ft | 436 kts | 51° |
| 2026-04-30 13:59 | 13.80400 | 101.13844 | 24667 ft | 439 kts | 51° |
| 2026-04-30 13:59 | 13.82308 | 101.16299 | 24998 ft | 441 kts | 51° |
| 2026-04-30 13:59 | 13.84232 | 101.18775 | 25327 ft | 443 kts | 51° |
| 2026-04-30 14:00 | 13.86161 | 101.21254 | 25644 ft | 445 kts | 51° |
| 2026-04-30 14:00 | 13.90305 | 101.26009 | 26249 ft | 448 kts | 39° |
| 2026-04-30 14:00 | 13.92843 | 101.27878 | 26538 ft | 449 kts | 29° |
| 2026-04-30 14:01 | 13.95586 | 101.29423 | 26845 ft | 451 kts | 27° |
| 2026-04-30 14:01 | 13.98355 | 101.30959 | 27125 ft | 453 kts | 27° |
| 2026-04-30 14:01 | 14.01133 | 101.32503 | 27418 ft | 455 kts | 27° |
| 2026-04-30 14:01 | 14.03920 | 101.34060 | 27705 ft | 457 kts | 27° |
| 2026-04-30 14:02 | 14.06723 | 101.35633 | 27990 ft | 459 kts | 27° |
| 2026-04-30 14:02 | 14.09529 | 101.37208 | 28286 ft | 461 kts | 27° |
| 2026-04-30 14:02 | 14.12343 | 101.38809 | 28550 ft | 463 kts | 30° |
| 2026-04-30 14:02 | 14.14955 | 101.40770 | 28809 ft | 467 kts | 40° |
| 2026-04-30 14:03 | 14.17188 | 101.43158 | 29056 ft | 471 kts | 50° |
| 2026-04-30 14:03 | 14.19019 | 101.45971 | 29296 ft | 475 kts | 60° |
| 2026-04-30 14:03 | 14.20347 | 101.49101 | 29528 ft | 478 kts | 70° |
| 2026-04-30 14:03 | 14.21445 | 101.52343 | 29757 ft | 480 kts | 70° |
| 2026-04-30 14:04 | 14.22559 | 101.55598 | 30001 ft | 482 kts | 69° |
| 2026-04-30 14:04 | 14.23684 | 101.58855 | 30194 ft | 484 kts | 69° |
| 2026-04-30 14:04 | 14.24818 | 101.62128 | 30382 ft | 485 kts | 69° |
| 2026-04-30 14:04 | 14.25950 | 101.65411 | 30568 ft | 487 kts | 69° |
| 2026-04-30 14:05 | 14.27082 | 101.68704 | 30750 ft | 488 kts | 70° |
| 2026-04-30 14:05 | 14.28211 | 101.71998 | 30943 ft | 489 kts | 70° |
| 2026-04-30 14:05 | 14.29348 | 101.75317 | 31183 ft | 490 kts | 70° |
| 2026-04-30 14:05 | 14.30481 | 101.78630 | 31404 ft | 490 kts | 70° |
| 2026-04-30 14:06 | 14.31614 | 101.81942 | 31645 ft | 490 kts | 70° |
| 2026-04-30 14:06 | 14.33873 | 101.88567 | 32165 ft | 489 kts | 70° |
| 2026-04-30 14:07 | 14.36131 | 101.95176 | 32698 ft | 488 kts | 70° |
| 2026-04-30 14:07 | 14.37258 | 101.98476 | 32960 ft | 488 kts | 70° |
| 2026-04-30 14:07 | 14.38381 | 102.01771 | 33235 ft | 487 kts | 70° |
| 2026-04-30 14:08 | 14.40630 | 102.08370 | 33702 ft | 489 kts | 70° |
| 2026-04-30 14:08 | 14.41743 | 102.11634 | 33939 ft | 489 kts | 70° |
| 2026-04-30 14:08 | 14.43990 | 102.18248 | 34428 ft | 488 kts | 70° |
| 2026-04-30 14:09 | 14.45111 | 102.21550 | 34659 ft | 487 kts | 70° |
| 2026-04-30 14:09 | 14.46229 | 102.24846 | 34900 ft | 486 kts | 70° |
| 2026-04-30 14:09 | 14.48459 | 102.31422 | 35358 ft | 485 kts | 69° |
| 2026-04-30 14:10 | 14.49569 | 102.34699 | 35590 ft | 484 kts | 70° |
| 2026-04-30 14:10 | 14.50679 | 102.37977 | 35813 ft | 483 kts | 69° |
| 2026-04-30 14:10 | 14.51786 | 102.41242 | 36036 ft | 482 kts | 70° |
| 2026-04-30 14:10 | 14.52893 | 102.44506 | 36262 ft | 480 kts | 70° |
| 2026-04-30 14:11 | 14.53991 | 102.47757 | 36480 ft | 480 kts | 70° |
| 2026-04-30 14:11 | 14.55086 | 102.51007 | 36677 ft | 479 kts | 70° |
| 2026-04-30 14:11 | 14.56180 | 102.54254 | 36868 ft | 479 kts | 70° |
| 2026-04-30 14:12 | 14.58369 | 102.60742 | 36955 ft | 478 kts | 70° |
| 2026-04-30 14:12 | 14.60563 | 102.67221 | 36947 ft | 477 kts | 70° |
| 2026-04-30 14:13 | 14.62750 | 102.73691 | 36948 ft | 477 kts | 70° |
| 2026-04-30 14:13 | 14.64935 | 102.80168 | 36946 ft | 479 kts | 70° |
| 2026-04-30 14:14 | 14.67124 | 102.86672 | 36950 ft | 480 kts | 70° |
| 2026-04-30 14:14 | 14.69292 | 102.93153 | 36944 ft | 480 kts | 70° |
| 2026-04-30 14:15 | 14.71486 | 102.99673 | 36951 ft | 481 kts | 70° |
| 2026-04-30 14:15 | 14.73674 | 103.06198 | 36952 ft | 481 kts | 71° |
| 2026-04-30 14:16 | 14.75851 | 103.12741 | 36951 ft | 481 kts | 71° |
| 2026-04-30 14:16 | 14.78037 | 103.19283 | 36950 ft | 481 kts | 71° |
| 2026-04-30 14:17 | 14.80227 | 103.25816 | 36942 ft | 482 kts | 71° |
| 2026-04-30 14:17 | 14.82419 | 103.32363 | 36943 ft | 482 kts | 71° |
| 2026-04-30 14:18 | 14.84604 | 103.38925 | 36908 ft | 484 kts | 70° |
| 2026-04-30 14:18 | 14.89906 | 103.47752 | 36900 ft | 485 kts | 48° |
| 2026-04-30 14:19 | 14.96516 | 103.55745 | 36898 ft | 490 kts | 48° |
| 2026-04-30 14:20 | 15.00946 | 103.61114 | 36908 ft | 491 kts | 48° |
| 2026-04-30 14:20 | 15.07590 | 103.69155 | 36917 ft | 493 kts | 48° |
| 2026-04-30 14:21 | 15.12070 | 103.74584 | 36920 ft | 493 kts | 48° |
| 2026-04-30 14:21 | 15.17204 | 103.79201 | 36924 ft | 488 kts | 29° |
| 2026-04-30 14:22 | 15.20207 | 103.80807 | 36928 ft | 485 kts | 20° |
| 2026-04-30 14:22 | 15.29512 | 103.84864 | 36923 ft | 486 kts | 20° |
| 2026-04-30 14:23 | 15.41983 | 103.90359 | 36919 ft | 488 kts | 20° |
| 2026-04-30 14:24 | 15.51359 | 103.94471 | 36925 ft | 488 kts | 20° |
| 2026-04-30 14:25 | 15.63863 | 103.99979 | 36944 ft | 488 kts | 19° |
| 2026-04-30 14:26 | 15.73220 | 104.04099 | 36941 ft | 487 kts | 19° |
| 2026-04-30 14:27 | 15.82585 | 104.08210 | 36944 ft | 487 kts | 19° |
| 2026-04-30 14:27 | 15.88819 | 104.10967 | 36962 ft | 487 kts | 19° |
| 2026-04-30 14:28 | 15.98177 | 104.15115 | 36940 ft | 488 kts | 19° |
| 2026-04-30 14:28 | 16.04343 | 104.18107 | 36935 ft | 494 kts | 28° |
| 2026-04-30 14:29 | 16.09586 | 104.22785 | 36927 ft | 502 kts | 45° |
| 2026-04-30 14:29 | 16.13481 | 104.27255 | 36933 ft | 502 kts | 45° |
| 2026-04-30 14:31 | 16.26020 | 104.41568 | 36950 ft | 503 kts | 44° |
| 2026-04-30 14:31 | 16.33067 | 104.49699 | 36956 ft | 505 kts | 45° |
| 2026-04-30 14:32 | 16.40083 | 104.57886 | 36965 ft | 505 kts | 45° |
| 2026-04-30 14:33 | 16.44749 | 104.63323 | 36968 ft | 505 kts | 45° |
| 2026-04-30 14:33 | 16.51788 | 104.71501 | 36973 ft | 505 kts | 45° |
| 2026-04-30 14:34 | 16.56401 | 104.77029 | 36989 ft | 507 kts | 51° |
| 2026-04-30 14:34 | 16.60260 | 104.83202 | 36989 ft | 507 kts | 54° |
| 2026-04-30 14:35 | 16.65971 | 104.92485 | 36987 ft | 507 kts | 54° |
| 2026-04-30 14:36 | 16.69785 | 104.98666 | 36983 ft | 507 kts | 54° |
| 2026-04-30 14:36 | 16.73571 | 105.04814 | 36984 ft | 507 kts | 54° |
| 2026-04-30 14:37 | 16.77383 | 105.11012 | 36990 ft | 507 kts | 54° |
| 2026-04-30 14:37 | 16.81185 | 105.17210 | 36990 ft | 507 kts | 54° |
| 2026-04-30 14:38 | 16.84982 | 105.23412 | 37008 ft | 506 kts | 55° |
| 2026-04-30 14:38 | 16.88764 | 105.29594 | 36999 ft | 505 kts | 55° |
| 2026-04-30 14:39 | 16.92543 | 105.35763 | 37005 ft | 503 kts | 55° |
| 2026-04-30 14:39 | 16.96309 | 105.41920 | 37006 ft | 503 kts | 55° |
| 2026-04-30 14:40 | 17.01947 | 105.51149 | 37018 ft | 502 kts | 55° |
| 2026-04-30 14:40 | 17.05671 | 105.57263 | 37016 ft | 502 kts | 55° |
| 2026-04-30 14:41 | 17.09412 | 105.63417 | 37012 ft | 502 kts | 55° |
| 2026-04-30 14:41 | 17.13160 | 105.69571 | 37043 ft | 501 kts | 55° |
| 2026-04-30 14:42 | 17.16906 | 105.75720 | 37039 ft | 501 kts | 55° |
| 2026-04-30 14:42 | 17.20641 | 105.81864 | 37047 ft | 500 kts | 55° |
| 2026-04-30 14:43 | 17.23734 | 105.86961 | 37043 ft | 500 kts | 55° |
| 2026-04-30 14:43 | 17.27451 | 105.93092 | 37063 ft | 499 kts | 55° |
| 2026-04-30 14:44 | 17.31176 | 105.99237 | 37067 ft | 499 kts | 55° |
| 2026-04-30 14:44 | 17.34891 | 106.05381 | 37064 ft | 500 kts | 55° |
| 2026-04-30 14:45 | 17.38611 | 106.11521 | 37079 ft | 500 kts | 55° |
| 2026-04-30 14:45 | 17.42383 | 106.17642 | 37090 ft | 499 kts | 54° |
| 2026-04-30 14:46 | 17.46166 | 106.23740 | 37090 ft | 499 kts | 54° |
| 2026-04-30 14:46 | 17.49936 | 106.29845 | 37083 ft | 498 kts | 55° |
| 2026-04-30 14:47 | 17.53689 | 106.35956 | 37070 ft | 499 kts | 55° |
| 2026-04-30 14:47 | 17.57417 | 106.42044 | 37073 ft | 499 kts | 55° |
| 2026-04-30 14:48 | 17.61172 | 106.48160 | 37073 ft | 499 kts | 55° |
| 2026-04-30 14:48 | 17.64928 | 106.54280 | 37073 ft | 499 kts | 55° |
| 2026-04-30 14:49 | 17.68682 | 106.60399 | 37072 ft | 499 kts | 55° |
| 2026-04-30 14:49 | 17.72429 | 106.66527 | 37083 ft | 499 kts | 55° |
| 2026-04-30 14:50 | 17.78021 | 106.75736 | 37080 ft | 499 kts | 55° |
| 2026-04-30 14:51 | 17.83614 | 106.84945 | 37082 ft | 499 kts | 55° |
| 2026-04-30 14:52 | 17.89216 | 106.94153 | 37081 ft | 499 kts | 55° |
| 2026-04-30 14:52 | 17.94816 | 107.03301 | 37083 ft | 498 kts | 55° |
| 2026-04-30 14:53 | 18.00426 | 107.12492 | 37078 ft | 498 kts | 55° |
| 2026-04-30 14:54 | 18.07898 | 107.24786 | 37073 ft | 499 kts | 55° |
| 2026-04-30 14:55 | 18.13511 | 107.34007 | 37074 ft | 499 kts | 55° |
| 2026-04-30 14:56 | 18.20967 | 107.46318 | 37069 ft | 499 kts | 56° |
| 2026-04-30 14:57 | 18.26554 | 107.55555 | 37067 ft | 499 kts | 56° |
| 2026-04-30 14:58 | 18.34001 | 107.67838 | 37073 ft | 498 kts | 52° |
| 2026-04-30 14:58 | 18.40568 | 107.76275 | 37067 ft | 496 kts | 48° |
| 2026-04-30 15:00 | 18.51583 | 107.90276 | 37065 ft | 496 kts | 48° |
| 2026-04-30 15:01 | 18.60368 | 108.01477 | 37076 ft | 496 kts | 48° |
| 2026-04-30 15:01 | 18.66965 | 108.09864 | 37065 ft | 495 kts | 48° |
| 2026-04-30 15:02 | 18.71346 | 108.15465 | 37060 ft | 495 kts | 48° |
| 2026-04-30 15:03 | 18.82254 | 108.29428 | 37050 ft | 494 kts | 48° |
| 2026-04-30 15:04 | 18.93187 | 108.43445 | 37052 ft | 495 kts | 48° |
| 2026-04-30 15:06 | 19.04135 | 108.57494 | 37049 ft | 495 kts | 48° |
| 2026-04-30 15:07 | 19.12851 | 108.68724 | 37052 ft | 496 kts | 48° |
| 2026-04-30 15:08 | 19.21601 | 108.80000 | 37052 ft | 496 kts | 48° |
| 2026-04-30 15:09 | 19.32565 | 108.94162 | 37043 ft | 498 kts | 49° |
| 2026-04-30 15:10 | 19.41341 | 109.05526 | 37052 ft | 498 kts | 49° |
| 2026-04-30 15:11 | 19.54513 | 109.22641 | 37040 ft | 501 kts | 49° |
| 2026-04-30 15:13 | 19.65445 | 109.37022 | 37055 ft | 502 kts | 49° |
| 2026-04-30 15:14 | 19.80789 | 109.57270 | 37061 ft | 503 kts | 49° |
| 2026-04-30 15:17 | 20.00471 | 109.83340 | 37073 ft | 503 kts | 49° |
| 2026-04-30 15:19 | 20.17936 | 110.06567 | 37083 ft | 502 kts | 49° |